TOURFACTS.DK  
Stats and Facts from Tour de France.

Tour de France 2019 starts in 321 days
  Riders   Stages   Teams   Summits   Yearly  


 
Search by year

After 2018 - Stage 21:
 15000 starters.
  5165 different riders.
  638 teams.
  2253 stages.
  456 restdays.
  442940.60 km.
  5684 abandonnees.


Top 3
GC
Geraint Thomas83:17:13
Tom Dumoulin83:19:04
Christopher Froome83:19:37
Climb
Julian Alaphilippe170 pt.
Warren Barguil91 pt.
Rafal Majka76 pt.
Sprint
Peter Sagan477 pt.
Alexander Kristoff246 pt.
Arnaud Démare203 pt.
Youth
Pierre-Roger Latou..83:39:26
Egan Bernal83:45:05
Guillaume Martin84:01:31
Facts from Tour de France 2015
  |   Stages.  |   Stage winners.  |   Days in yellow  |   Average speed.  |   Route.  |   Teams.  |   All riders.  |   Rookies.  |  

  |   Withdrawls.  |   GC.  |   Polka  |   Green  |   White  |   Summits. (In tour)  |   Miscellaneous.  |  

Stage 4 on 07 - 07 - 2015
         Owning:    Tony Martin      Joaquim Rodriguez      André Greipel      Peter Sagan  

Pick a stage:  1 2 3 4 5 6 7 8 9 10 11 12 13 14 15 16 17 18 19 20 21
  SeraingCambrai | Dist: 223.50 km.
Cat: 4Côte de la Citadelle NamurBELThomas De Gendt1 points 

Average speed for all riders in stage:  39,978 km./hr.
    Place:Name:Team:Time:Km/h:
1
GERTony MartinBELEtixx - Quick Step05:28:58  +  00:00:00=40,764 
2
GERJohn DegenkolbDEUTeam Giant Alpecin05:29:01  +  00:00:03=40,758 
3
SVKPeter SaganRUSTinkoff Saxo05:29:01  +  00:00:03=40,758 
44 BELGreg Van AvermaetUSABMC Racing Team05:29:01  +  00:00:03=40,758 
55 NOREdvald Boasson HagenZAFMTN - Qhubeka P/B Samsung05:29:01  +  00:00:03=40,758 
66 FRANacer BouhanniFRACofidis – Solutions Crédits05:29:01  +  00:00:03=40,758 
77 ITAJacopo GuarnieriRUSTeam Katusha05:29:01  +  00:00:03=40,758 
88 FRATony GallopinBELLotto Soudal05:29:01  +  00:00:03=40,758 
99 CZEZdenek StybarBELEtixx - Quick Step05:29:01  +  00:00:03=40,758 
1010 FRABryan CoquardFRATeam Europcar05:29:01  +  00:00:03=40,758 
1111 ESPAlejandro ValverdeESPMovistar Team05:29:01  +  00:00:03=40,758 
1212 IOMMark CavendishBELEtixx - Quick Step05:29:01  +  00:00:03=40,758 
1313 COLRigoberto UránBELEtixx - Quick Step05:29:01  +  00:00:03=40,758 
1414 NEDRobert GesinkNLDTeam Lotto NL - Jumbo05:29:01  +  00:00:03=40,758 
1515 ITAVincenzo NibaliKAZAstana Pro Team05:29:01  +  00:00:03=40,758 
1616 NEDBauke MollemaUSATrek Factory Racing05:29:01  +  00:00:03=40,758 
1717 KENChristopher FroomeGBRSky Procycling05:29:01  +  00:00:03=40,758 
1818 FRARomain BardetFRAAg2r La Mondiale05:29:01  +  00:00:03=40,758 
1919 ESPAlberto ContadorRUSTinkoff Saxo05:29:01  +  00:00:03=40,758 
2020 ESPJoaquim RodriguezRUSTeam Katusha05:29:01  +  00:00:03=40,758 
2121 FRAWarren BarguilDEUTeam Giant Alpecin05:29:01  +  00:00:03=40,758 
2222 WALGeraint ThomasGBRSky Procycling05:29:01  +  00:00:03=40,758 
2323 COLNairo QuintanaESPMovistar Team05:29:01  +  00:00:03=40,758 
2424 USATejay Van GarderenUSABMC Racing Team05:29:01  +  00:00:03=40,758 
2525 USAAndrew TalanskyUSATeam Cannondale - Garmin05:29:01  +  00:00:03=40,758 
2626 FRAJean-Christophe PeraudFRAAg2r La Mondiale05:29:01  +  00:00:03=40,758 
2727 FRAChristophe LaporteFRACofidis – Solutions Crédits05:29:01  +  00:00:03=40,758 
2828 SUIMathias FrankCHEIAM Cycling05:29:01  +  00:00:03=40,758 
2929 CZERoman KreuzigerRUSTinkoff Saxo05:29:01  +  00:00:03=40,758 
3030 SUIJakob FuglsangKAZAstana Pro Team05:29:01  +  00:00:03=40,758 
3131 ITAManuel QuinziatoUSABMC Racing Team05:29:01  +  00:00:03=40,758 
3232 BELJan BakelantsFRAAg2r La Mondiale05:29:01  +  00:00:03=40,758 
3333 SLOKristjan KorenUSATeam Cannondale - Garmin05:29:01  +  00:00:03=40,758 
3434 FRAFlorian SénéchalFRACofidis – Solutions Crédits05:29:01  +  00:00:03=40,758 
3535 BELJulien VermoteBELEtixx - Quick Step05:29:01  +  00:00:03=40,758 
3636 FRAAngelo TulikFRATeam Europcar05:29:16  +  00:00:18=40,727 
3737 NEDKoen De KortDEUTeam Giant Alpecin05:29:41  +  00:00:43=40,675 
3838 PORRui CostaITALampre-Merida05:29:49  +  00:00:51=40,659 
3939 NEDBram TankinkNLDTeam Lotto NL - Jumbo05:29:49  +  00:00:51=40,659 
4040 GERMarcel SiebergBELLotto Soudal05:29:49  +  00:00:51=40,659 
4141 ESPAlberto LosadaRUSTeam Katusha05:29:49  +  00:00:51=40,659 
4242 FRASylvain ChavanelCHEIAM Cycling05:29:49  +  00:00:51=40,659 
4343 FRANicolas RocheGBRSky Procycling05:29:49  +  00:00:51=40,659 
4444 GERDominik NerzDEUBora-Argon 1805:29:55  +  00:00:57=40,647 
4545 PORNelson OliveiraITALampre-Merida05:30:53  +  00:01:55=40,528 
4646 COLJarlinson Pantano GomezCHEIAM Cycling05:30:53  +  00:01:55=40,528 
4747 POLMichal GolasBELEtixx - Quick Step05:30:53  +  00:01:55=40,528 
4848 ITADaniele BennatiRUSTinkoff Saxo05:31:19  +  00:02:21=40,475 
4949 SUIDanilo WyssUSABMC Racing Team05:31:19  +  00:02:21=40,475 
5050 BELKenneth VanbilsenFRACofidis – Solutions Crédits05:31:19  +  00:02:21=40,475 
5151 ESPJonathan CastroviejoESPMovistar Team05:31:42  +  00:02:44=40,428 
5252 ESPGorka Izaguirre InsaustiESPMovistar Team05:31:42  +  00:02:44=40,428 
5353 FRAGeoffrey SoupeFRACofidis – Solutions Crédits05:31:52  +  00:02:54=40,408 
5454 URSRamunas NavardauskasUSATeam Cannondale - Garmin05:32:21  +  00:03:23=40,349 
5555 SUIGregory RastUSATrek Factory Racing05:32:21  +  00:03:23=40,349 
5656 PORTiago PintoRUSTeam Katusha05:32:21  +  00:03:23=40,349 
5757 GERPaul VossDEUBora-Argon 1805:32:21  +  00:03:23=40,349 
5858 BELSerge PauwelsZAFMTN - Qhubeka P/B Samsung05:32:21  +  00:03:23=40,349 
5959 ITAFilippo PozzatoITALampre-Merida05:32:21  +  00:03:23=40,349 
6060 SUIMichael SchärUSABMC Racing Team05:32:21  +  00:03:23=40,349 
6161 UKRAndriy GrivkoKAZAstana Pro Team05:32:21  +  00:03:23=40,349 
6262 ARGEduardo SepulvedaFRABretagne - Séché Environnement05:32:21  +  00:03:23=40,349 
6363 CZEJan BártaDEUBora-Argon 1805:32:21  +  00:03:23=40,349 
6464 NEDRoy CurversDEUTeam Giant Alpecin05:32:21  +  00:03:23=40,349 
6565 FRAPierre RollandFRATeam Europcar05:32:21  +  00:03:23=40,349 
6666 FRAMickaël CherelFRAAg2r La Mondiale05:32:21  +  00:03:23=40,349 
6767 NEDRamon SinkeldamDEUTeam Giant Alpecin05:32:21  +  00:03:23=40,349 
6868 FRAThibaut PinotFRAFDJ05:32:21  +  00:03:23=40,349 
6969 DENLars BakBELLotto Soudal05:32:21  +  00:03:23=40,349 
7070 LUXBen GastauerFRAAg2r La Mondiale05:32:21  +  00:03:23=40,349 
7171 ESPMarkel IrizarUSATrek Factory Racing05:32:21  +  00:03:23=40,349 
7272 FRAAlexis VuillermozFRAAg2r La Mondiale05:32:21  +  00:03:23=40,349 
7373 ITAAdriano MaloriESPMovistar Team05:32:21  +  00:03:23=40,349 
7474 NEDJos Van EmdenNLDTeam Lotto NL - Jumbo05:32:21  +  00:03:23=40,349 
7575 NEDWilco KeldermanNLDTeam Lotto NL - Jumbo05:32:21  +  00:03:23=40,349 
7676 GERAndré GreipelBELLotto Soudal05:32:21  +  00:03:23=40,349 
7777 CANRyder HesjedalUSATeam Cannondale - Garmin05:32:21  +  00:03:23=40,349 
7878 ESPSamuel SanchezUSABMC Racing Team05:32:21  +  00:03:23=40,349 
7979 USATyler FarrarZAFMTN - Qhubeka P/B Samsung05:32:21  +  00:03:23=40,349 
8080 AUSMichael RogersRUSTinkoff Saxo05:32:21  +  00:03:23=40,349 
8181 FRAAnthony DelaplaceFRABretagne - Séché Environnement05:32:21  +  00:03:23=40,349 
8282 FRAPierre-Luc PérichonFRABretagne - Séché Environnement05:32:29  +  00:03:31=40,333 
8383 FRAAlexandre GeniezFRAFDJ05:32:39  +  00:03:41=40,313 
8484 POLBartosz HuzarskiDEUBora-Argon 1805:32:39  +  00:03:41=40,313 
8585 AUSLuke DurbridgeAUSOrica - GreenEDGE05:32:39  +  00:03:41=40,313 
8686 SUIMartin ElmigerCHEIAM Cycling05:32:39  +  00:03:41=40,313 
8787 SUIReto HollensteinCHEIAM Cycling05:32:39  +  00:03:41=40,313 
8888 AUSRohan DennisUSABMC Racing Team05:32:39  +  00:03:41=40,313 
8989 AUSZakkari DempsterDEUBora-Argon 1805:32:39  +  00:03:41=40,313 
9090 ITADaniel OssUSABMC Racing Team05:32:39  +  00:03:41=40,313 
9191 RSAReinardt Janse Van RensburgZAFMTN - Qhubeka P/B Samsung05:32:39  +  00:03:41=40,313 
9292 GERSimon GeschkeDEUTeam Giant Alpecin05:32:39  +  00:03:41=40,313 
9393 COLJosé SerpaITALampre-Merida05:32:39  +  00:03:41=40,313 
9494 NEDTom LeezerNLDTeam Lotto NL - Jumbo05:32:39  +  00:03:41=40,313 
9595 URSRein TaaramäeKAZAstana Pro Team05:32:39  +  00:03:41=40,313 
9696 FRAArnaud DémareFRAFDJ05:32:47  +  00:03:49=40,296 
9797 ENGIan StannardGBRSky Procycling05:32:51  +  00:03:53=40,288 
9898 DENMichael ValgrenRUSTinkoff Saxo05:32:51  +  00:03:53=40,288 
9999 FRABenoit VaugrenardFRAFDJ05:32:54  +  00:03:56=40,282 
100100 FRADamien GaudinFRAAg2r La Mondiale05:32:56  +  00:03:58=40,278 
101101 FRAMatthieu LadagnousFRAFDJ05:33:49  +  00:04:51=40,172 
102102 NZLJack BauerUSATeam Cannondale - Garmin05:34:35  +  00:05:37=40,080 
103103 NEDSebastian LangeveldUSATeam Cannondale - Garmin05:34:35  +  00:05:37=40,080 
104104 AUSNathan HaasUSATeam Cannondale - Garmin05:34:35  +  00:05:37=40,080 
105105 ENGDaniel MartinUSATeam Cannondale - Garmin05:34:35  +  00:05:37=40,080 
106106 BELStijn DevolderUSATrek Factory Racing05:34:35  +  00:05:37=40,080 
107107 NEDSteven KruijswijkNLDTeam Lotto NL - Jumbo05:34:35  +  00:05:37=40,080 
108108 AUTGeorg PreidlerDEUTeam Giant Alpecin05:34:35  +  00:05:37=40,080 
109109 FRAPierrick FédrigoFRABretagne - Séché Environnement05:34:35  +  00:05:37=40,080 
110110 FRAArmindo FonsecaFRABretagne - Séché Environnement05:34:35  +  00:05:37=40,080 
111111 FRABrice FeilluFRABretagne - Séché Environnement05:34:35  +  00:05:37=40,080 
112112 FRAJérémy RoyFRAFDJ05:34:35  +  00:05:37=40,080 
113113 FRACyril GautierFRATeam Europcar05:34:35  +  00:05:37=40,080 
114114 ESPHaimar ZubeldiaUSATrek Factory Racing05:34:35  +  00:05:37=40,080 
115115 SUISteve MorabitoFRAFDJ05:34:35  +  00:05:37=40,080 
116116 ENGAdam YatesAUSOrica - GreenEDGE05:34:35  +  00:05:37=40,080 
117117 ESPImanol ErvitiESPMovistar Team05:34:35  +  00:05:37=40,080 
118118 ESPDaniel NavarroFRACofidis – Solutions Crédits05:34:35  +  00:05:37=40,080 
119119 FRASébastien ChavanelFRAFDJ05:34:35  +  00:05:37=40,080 
120120 NEDStef ClementCHEIAM Cycling05:34:35  +  00:05:37=40,080 
121121 GERPaul MartensNLDTeam Lotto NL - Jumbo05:34:35  +  00:05:37=40,080 
122122 ESPLuis Angel MateFRACofidis – Solutions Crédits05:34:35  +  00:05:37=40,080 
123123 SUIMarcel WyssCHEIAM Cycling05:34:35  +  00:05:37=40,080 
124124 FRAJulien SimonFRACofidis – Solutions Crédits05:34:35  +  00:05:37=40,080 
125125 FRAArnaud GérardFRABretagne - Séché Environnement05:34:35  +  00:05:37=40,080 
126126 FRARomain SicardFRATeam Europcar05:34:35  +  00:05:37=40,080 
127127 FRAYohann GèneFRATeam Europcar05:34:35  +  00:05:37=40,080 
128128 FRAFlorian VachonFRABretagne - Séché Environnement05:34:35  +  00:05:37=40,080 
129129 FRAPerrig QuemeneurFRATeam Europcar05:34:43  +  00:05:45=40,064 
130130 IOMPeter KennaughGBRSky Procycling05:34:48  +  00:05:50=40,054 
131131 POLMichal KwiatkowskiBELEtixx - Quick Step05:34:54  +  00:05:56=40,042 
132132 ITAMatteo TrentinBELEtixx - Quick Step05:34:54  +  00:05:56=40,042 
133133 ITAMatteo TosattoRUSTinkoff Saxo05:34:54  +  00:05:56=40,042 
134134 POLRafal MajkaRUSTinkoff Saxo05:34:54  +  00:05:56=40,042 
135135 HRVKristijan DurasekITALampre-Merida05:34:54  +  00:05:56=40,042 
136136 NEDLieuwe WestraKAZAstana Pro Team05:34:54  +  00:05:56=40,042 
137137 NEDWout PoelsGBRSky Procycling05:34:54  +  00:05:56=40,042 
138138 ENGSimon YatesAUSOrica - GreenEDGE05:34:54  +  00:05:56=40,042 
139139 WALLuke RoweGBRSky Procycling05:34:54  +  00:05:56=40,042 
140140 AUSMark RenshawBELEtixx - Quick Step05:34:57  +  00:05:59=40,036 
141141 BELJens DebusschereBELLotto Soudal05:34:57  +  00:05:59=40,036 
142142 NEDLars BoomKAZAstana Pro Team05:35:01  +  00:06:03=40,028 
143143 NORAlexander KristoffRUSTeam Katusha05:35:12  +  00:06:14=40,006 
144144 KAZDmitriy GruzdevKAZAstana Pro Team05:35:19  +  00:06:21=39,992 
145145 BELSep VanmarckeNLDTeam Lotto NL - Jumbo05:36:01  +  00:07:03=39,909 
146146 URSTanel KangertKAZAstana Pro Team05:43:40  +  00:14:42=39,020 
147147 AUTMatthias BrändleCHEIAM Cycling05:44:41  +  00:15:43=38,905 
148148 PORJosé João PimentaDEUBora-Argon 1805:44:41  +  00:15:43=38,905 
149149 NEDDylan Van BaarleUSATeam Cannondale - Garmin05:44:41  +  00:15:43=38,905 
150150 LUXBob JungelsUSATrek Factory Racing05:45:51  +  00:16:53=38,774 
151151 ERIDaniel TeklehaimanotZAFMTN - Qhubeka P/B Samsung05:45:51  +  00:16:53=38,774 
152152 RSAJacques Janse Van RensburgZAFMTN - Qhubeka P/B Samsung05:45:51  +  00:16:53=38,774 
153153 ESPJosé Herrada LópezESPMovistar Team05:45:51  +  00:16:53=38,774 
154154 GEREmanuel BuchmannDEUBora-Argon 1805:45:51  +  00:16:53=38,774 
155155 ERIMerhawi GhebremedhinZAFMTN - Qhubeka P/B Samsung05:45:51  +  00:16:53=38,774 
156156 ITAMatteo BonoITALampre-Merida05:45:51  +  00:16:53=38,774 
157157 ESPRubén PlazaITALampre-Merida05:45:51  +  00:16:53=38,774 
158158 NEDAlbert TimmerDEUTeam Giant Alpecin05:45:51  +  00:16:53=38,774 
159159 AUSRichie PorteGBRSky Procycling05:45:51  +  00:16:53=38,774 
160160 FRANicolas EdetFRACofidis – Solutions Crédits05:45:51  +  00:16:53=38,774 
161161 ESPRafael Valls FerriITALampre-Merida05:45:51  +  00:16:53=38,774 
162162 COLJulián ArredondoUSATrek Factory Racing05:45:51  +  00:16:53=38,774 
163163 COLWinner AnaconaESPMovistar Team05:45:51  +  00:16:53=38,774 
164164 BELThomas De GendtBELLotto Soudal05:45:51  +  00:16:53=38,774 
165165 FRABryan NauleauFRATeam Europcar05:45:51  +  00:16:53=38,774 
166166 FRAThomas VoecklerFRATeam Europcar05:45:51  +  00:16:53=38,774 
167167 ITAIvan BassoRUSTinkoff Saxo05:45:51  +  00:16:53=38,774 
168168 BELSam BennettDEUBora-Argon 1805:45:51  +  00:16:53=38,774 
169169 ITADavide CimolaiITALampre-Merida05:45:51  +  00:16:53=38,774 
170170 FRAChristophe RiblonFRAAg2r La Mondiale05:45:51  +  00:16:53=38,774 
171171 ITAMichele ScarponiKAZAstana Pro Team05:45:51  +  00:16:53=38,774 
172172 ITALuca PaoliniRUSTeam Katusha05:45:51  +  00:16:53=38,774 
173173 ENGStephen CummingsZAFMTN - Qhubeka P/B Samsung05:45:51  +  00:16:53=38,774 
174174 CZELeopold KönigGBRSky Procycling05:45:51  +  00:16:53=38,774 
175175 LUXLaurent DidierUSATrek Factory Racing05:45:51  +  00:16:53=38,774 
176176 ITAGiampaolo CarusoRUSTeam Katusha05:45:51  +  00:16:53=38,774 
177177 ITADamiano CarusoUSABMC Racing Team05:45:51  +  00:16:53=38,774 
178178 FRAJérôme CoppelCHEIAM Cycling05:45:51  +  00:16:53=38,774 
179179 FRAFrédéric BrunFRABretagne - Séché Environnement05:45:51  +  00:16:53=38,774 
180180 SUIMichael AlbasiniAUSOrica - GreenEDGE05:45:51  +  00:16:53=38,774 
181181 RSALouis MeintjesZAFMTN - Qhubeka P/B Samsung05:45:51  +  00:16:53=38,774 
182182 AUTMarco HallerRUSTeam Katusha05:45:51  +  00:16:53=38,774 
183183 BELJohan VansummerenFRAAg2r La Mondiale05:45:51  +  00:16:53=38,774 
184184 CANSvein TuftAUSOrica - GreenEDGE05:45:51  +  00:16:53=38,774 
185185 BELTim WellensBELLotto Soudal05:45:51  +  00:16:53=38,774 
186186 NEDLaurens ten DamNLDTeam Lotto NL - Jumbo05:45:51  +  00:16:53=38,774 
187187 NZLGregory HendersonBELLotto Soudal05:45:51  +  00:16:53=38,774 
188188 AUSAdam HansenBELLotto Soudal05:45:51  +  00:16:53=38,774 
189189 NEDPieter WeeningAUSOrica - GreenEDGE05:45:51  +  00:16:53=38,774 
190190 AUSMichael MatthewsAUSOrica - GreenEDGE05:45:51  +  00:16:53=38,774 
191191 ENGAlex DowsettESPMovistar Team05:55:02  +  00:26:04=37,771 

Withdrawls: 3
 
Rider
Team
Reason
104  RSADaryl ImpeyAUSOrica - GreenEDGEDid not start
143  SUIFabian CancellaraUSATrek Factory RacingDid not start
198  GERAndreas SchillingerDEUBora-Argon 18Did not start
Todays birthdays.

1878  Louis Gardent
1904  Ludwig Geyer
1911  Paul Egli
1916  Piet Van Nek
1926  Bruno Garonzi
1933  Roger Baens
1938  Roland Zöffel
1945  Marcello Osler
1946  Antonio Menendez
1962  Niki Rüttimann
1969  Serge Baguet
1970  Cédric Vasseur
1971  Cristian Salvato
1972  Sven Teutenberg
1988  Frédéric Brun